Weather reports worldwide

Advertisment
Monte Terminillo, Italy (16219): temperature & dewpoint: 03.07.2020 03:00:00 - 09.07.2020 03:00:00 (CEST)Monte Terminillo, Italy (16219): wind speed & gusts: 03.07.2020 03:00:00 - 09.07.2020 03:00:00 (CEST)Monte Terminillo, Italy (16219): wind direction: 03.07.2020 03:00:00 - 09.07.2020 03:00:00 (CEST)Monte Terminillo, Italy (16219): sunshine duration: 03.07.2020 03:00:00 - 09.07.2020 03:00:00 (CEST)
Date & Time tt [°C] td [°C] ff [km/h] ff [kn] fx [km/h] fx [kn] dd sd [min]
09.07.2020 03:00:00 14,3 10,0 4 2 - - NW 0
09.07.2020 02:00:00 14,7 9,9 8 4 - - WNW 0
09.07.2020 01:00:00 15,0 10,2 2 1 - - WNW 0
09.07.2020 00:00:00 15,5 11,9 4 2 - - N 0
08.07.2020 23:00:00 15,8 12,4 5 3 - - NNW 0
08.07.2020 22:00:00 16,2 12,8 13 7 - - NW 0
08.07.2020 21:00:00 16,9 8,8 16 9 - - NW 32
08.07.2020 20:00:00 17,3 9,5 16 9 - - WNW 60
08.07.2020 19:00:00 17,5 10,3 18 10 - - WNW 59
08.07.2020 18:00:00 17,7 11,4 21 11 - - WNW 21
08.07.2020 17:00:00 17,9 9,1 18 10 - - WNW 18
08.07.2020 16:00:00 17,9 13,0 16 9 - - WNW 28
08.07.2020 15:00:00 17,3 12,8 15 8 - - WNW 14
08.07.2020 14:00:00 17,0 13,0 16 9 - - WNW 23
08.07.2020 13:00:00 16,8 13,2 9 5 - - WNW 11
08.07.2020 12:00:00 16,2 12,7 4 2 - - N 31
08.07.2020 11:00:00 14,9 11,2 9 5 - - WNW 38
08.07.2020 10:00:00 14,4 11,1 8 4 - - WNW 60
08.07.2020 09:00:00 13,8 10,9 13 7 - - NNW 60
08.07.2020 08:00:00 13,2 10,6 11 6 - - NW 59
08.07.2020 07:00:00 12,7 9,5 18 10 - - NW 19
08.07.2020 06:00:00 12,9 10,0 26 14 - - NW 0
08.07.2020 05:00:00 13,3 10,3 18 10 - - WNW 0
08.07.2020 04:00:00 13,7 11,1 18 10 - - NW 0
08.07.2020 03:00:00 14,1 11,2 18 10 - - WNW 0
08.07.2020 02:00:00 14,8 11,4 16 9 - - WNW 0
08.07.2020 01:00:00 15,1 11,5 13 7 - - WNW 0
08.07.2020 00:00:00 15,7 11,3 11 6 - - W 0
07.07.2020 23:00:00 16,2 12,0 13 7 - - WNW 0
07.07.2020 22:00:00 16,7 12,5 11 6 - - WNW 0
07.07.2020 21:00:00 17,3 12,9 8 4 - - WNW 1
07.07.2020 20:00:00 17,3 12,5 4 2 - - N 35
07.07.2020 19:00:00 17,2 12,8 13 7 - - WNW 5
07.07.2020 18:00:00 16,8 12,5 4 2 - - N 8
07.07.2020 17:00:00 16,8 12,3 4 2 - - N 12
07.07.2020 16:00:00 16,0 11,8 4 2 - - NNW 9
07.07.2020 15:00:00 15,2 11,2 4 2 - - N 0
07.07.2020 14:00:00 14,5 11,1 4 2 - - N 33
07.07.2020 13:00:00 12,9 11,0 13 7 - - E 56
07.07.2020 12:00:00 13,5 10,5 15 8 - - ESE 49
07.07.2020 11:00:00 13,5 9,9 26 14 - - ESE 60
07.07.2020 10:00:00 14,5 8,0 28 15 - - ESE 60
07.07.2020 09:00:00 14,6 5,4 29 16 - - ESE 60
07.07.2020 08:00:00 15,2 7,1 34 18 - - E 60
07.07.2020 07:00:00 14,7 6,9 31 17 - - E 42
07.07.2020 06:00:00 14,6 7,1 39 21 - - ENE 0
07.07.2020 05:00:00 14,5 7,1 29 16 - - ENE 0
07.07.2020 04:00:00 14,7 6,1 24 13 - - ENE 0
07.07.2020 03:00:00 - - - - - - - -
07.07.2020 02:00:00 15,1 6,1 4 2 - - N 0
07.07.2020 01:00:00 15,4 7,6 26 14 - - N 0
07.07.2020 00:00:00 15,7 6,3 31 17 - - NNW 0
06.07.2020 23:00:00 16,4 7,6 34 18 - - NNW 0
06.07.2020 22:00:00 17,6 9,1 18 10 - - NNW 0
06.07.2020 21:00:00 18,5 9,1 18 10 - - NW 22
06.07.2020 20:00:00 19,2 10,0 18 10 - - WNW 60
06.07.2020 19:00:00 19,8 11,1 21 11 - - WNW 60
06.07.2020 18:00:00 20,2 12,1 18 10 - - WNW 58
06.07.2020 17:00:00 20,0 11,7 15 8 - - WNW 57
06.07.2020 16:00:00 19,5 11,0 4 2 - - N 60
06.07.2020 15:00:00 18,3 9,8 4 2 - - N 60
06.07.2020 14:00:00 17,4 5,0 4 2 - - N 60
06.07.2020 13:00:00 17,3 2,7 4 2 - - N 60
06.07.2020 12:00:00 17,0 4,4 11 6 - - SE 60
06.07.2020 11:00:00 16,0 5,7 4 2 - - N 60
06.07.2020 10:00:00 15,3 2,4 9 5 - - E 60
06.07.2020 09:00:00 14,0 -3,1 13 7 - - SE 60
06.07.2020 08:00:00 13,0 -7,4 2 1 - - - 60
06.07.2020 07:00:00 13,0 -9,4 11 6 - - NNW 43
06.07.2020 06:00:00 12,9 -1,3 18 10 - - NE 0
06.07.2020 05:00:00 13,4 -1,4 4 2 - - N 0
06.07.2020 04:00:00 13,8 -0,8 4 2 - - N 0
06.07.2020 03:00:00 13,8 0,1 9 5 - - ESE 0
06.07.2020 02:00:00 14,3 7,2 8 4 - - ESE 0
06.07.2020 01:00:00 14,6 7,7 9 5 - - E 0
06.07.2020 00:00:00 15,0 6,2 5 3 - - WNW 0
05.07.2020 23:00:00 15,4 3,7 5 3 - - WSW 0
05.07.2020 22:00:00 15,9 8,5 8 4 - - NE 0
05.07.2020 21:00:00 16,0 8,2 4 2 - - N 21
05.07.2020 20:00:00 17,2 8,6 4 2 - - N 60
05.07.2020 19:00:00 17,5 10,2 13 7 - - E 27
05.07.2020 18:00:00 17,7 9,3 4 2 - - N 54
05.07.2020 17:00:00 17,7 9,2 4 2 - - N 20
05.07.2020 16:00:00 17,3 10,3 4 2 - - N 27
05.07.2020 15:00:00 16,3 7,8 4 2 - - N 52
05.07.2020 14:00:00 15,4 3,4 4 2 - - N 60
05.07.2020 13:00:00 14,1 4,4 11 6 - - ESE 60
05.07.2020 12:00:00 12,9 0,4 16 9 - - E 60
05.07.2020 11:00:00 12,9 1,6 41 22 - - E 60
05.07.2020 10:00:00 13,3 -3,5 42 23 - - E 60
05.07.2020 09:00:00 12,3 -1,3 42 23 - - E 60
05.07.2020 08:00:00 - - - - - - - -
05.07.2020 07:00:00 11,9 -2,4 4 2 - - N 43
05.07.2020 06:00:00 12,2 -0,7 5 3 - - WNW 0
05.07.2020 05:00:00 12,1 0,4 4 2 - - N 0
05.07.2020 04:00:00 11,9 -0,4 48 26 - - E 0
05.07.2020 03:00:00 11,9 -4,5 54 29 - - E 0
05.07.2020 02:00:00 11,4 2,6 29 16 - - E 0
05.07.2020 01:00:00 11,3 3,6 31 17 56 30 NNE 0
05.07.2020 00:00:00 11,5 6,1 55 30 - - NE 0
04.07.2020 23:00:00 11,8 7,5 57 31 - - NE 0
04.07.2020 22:00:00 12,5 8,9 39 21 - - NE 0
04.07.2020 21:00:00 12,7 8,8 41 22 - - NE 21
04.07.2020 20:00:00 12,1 8,0 4 2 - - N 60
04.07.2020 19:00:00 11,6 8,7 15 8 - - NE 6
04.07.2020 18:00:00 11,5 8,7 13 7 - - ENE 0
04.07.2020 17:00:00 11,0 3,7 15 8 - - E 0
04.07.2020 16:00:00 10,1 5,8 15 8 - - ESE 0
04.07.2020 15:00:00 12,4 10,1 13 7 - - ESE 0
04.07.2020 14:00:00 13,9 9,9 21 11 - - E 0
04.07.2020 13:00:00 12,9 7,1 16 9 - - SE 0
04.07.2020 12:00:00 16,1 11,5 11 6 - - E 0
04.07.2020 11:00:00 15,4 11,4 18 10 - - E 26
04.07.2020 10:00:00 15,5 11,3 13 7 - - SE 58
04.07.2020 09:00:00 14,2 10,4 4 2 - - N 41
04.07.2020 08:00:00 13,8 10,5 4 2 - - N 45
04.07.2020 07:00:00 13,8 11,2 4 2 - - N 7
04.07.2020 06:00:00 13,7 11,2 8 4 - - SSW 0
04.07.2020 05:00:00 14,0 9,3 8 4 - - SSW 0
04.07.2020 04:00:00 14,3 8,3 8 4 - - S 0
04.07.2020 03:00:00 14,4 7,7 4 2 - - N 0
04.07.2020 02:00:00 14,3 7,1 4 2 - - N 0
04.07.2020 01:00:00 14,1 7,3 8 4 - - ESE 0
04.07.2020 00:00:00 15,7 9,0 15 8 - - ESE 0
03.07.2020 23:00:00 16,4 10,6 11 6 - - ESE 0
03.07.2020 22:00:00 17,3 11,0 5 3 - - NNE 0
03.07.2020 21:00:00 18,0 11,6 11 6 - - NNE 0
03.07.2020 20:00:00 18,3 12,8 8 4 - - WNW 24
03.07.2020 19:00:00 18,6 12,4 11 6 - - WNW 40
03.07.2020 18:00:00 19,5 12,4 13 7 - - WNW 0
03.07.2020 17:00:00 19,9 12,3 16 9 - - W 0
03.07.2020 16:00:00 20,2 12,5 21 11 - - WNW 8
03.07.2020 15:00:00 20,0 11,5 24 13 - - WNW 27
03.07.2020 14:00:00 19,7 12,6 4 2 - - N 60
03.07.2020 13:00:00 18,9 11,6 11 6 - - W 58
03.07.2020 12:00:00 17,9 8,9 9 5 - - W 57
03.07.2020 11:00:00 17,1 8,2 9 5 - - W 60
03.07.2020 10:00:00 16,1 7,7 9 5 - - WNW 60
03.07.2020 09:00:00 15,4 7,4 9 5 - - NW 48
03.07.2020 08:00:00 14,7 6,8 9 5 - - WNW 60
03.07.2020 07:00:00 14,5 6,9 13 7 - - WNW 44
03.07.2020 06:00:00 14,8 7,4 16 9 - - NW 0
03.07.2020 05:00:00 15,2 10,2 13 7 - - WNW 0
03.07.2020 04:00:00 15,6 7,7 18 10 - - NW 0
03.07.2020 03:00:00 15,9 10,7 18 10 - - NW 0

tt = temperature
td = dewpoint
ff = wind speed
fx = gusts
dd = wind direction
sd = sunshine duration

Next stations